»·PEaware :: AAL2321 KSAN-KSNA

AAL2321 :: KSAN-KSNA

FLIGHT INFORMATION

Flight Status: Arrived
Operator:
American Airlines
More flights by this operator :: More flights under this callsign
Pilot: Alfonso U. (14209)
Aircraft: BOEING 737-800
(B738)
More flights by this aircraft type
Origin: KSAN San Diego Intl-Lindbergh
United States
Destination: KSNA John Wayne-Orange Co
United States
More flights between these airports :: More routes between these airports
Route: +PEBLE6 SLI
File this flight plan on PilotEdge
Remarks: TEC ROUTE SANN4
Altitude:
(Current/Filed)
1,000ft
Speed:
(Current/Filed)
300kts
Departed: 08-Jun-17 10:43 AM
Arrived: 08-Jun-17 11:18 AM
Distance/Time
Traveled:
66nm/0:34
Distance/Time
To Go:
Arrived

Flight Plot

Page will automatically refresh every two minutes.


Map Options




Map Legend


Flown Route
Filed Route
Departure Airport
Arrival Airport
Navaid (VOR, NDB)
Fix

Horizontal Profiles

Position Reports

Time Latitude Longitude Heading Altitude Ground
Speed
08-Jun-17 10:22 32.733208 -117.196888 134 25ft 0kts
08-Jun-17 10:23 32.733208 -117.196888 134 25ft 0kts
08-Jun-17 10:24 32.733208 -117.196888 134 25ft 0kts
08-Jun-17 10:25 32.733208 -117.196888 134 25ft 0kts
08-Jun-17 10:26 32.733208 -117.196888 134 25ft 0kts
08-Jun-17 10:27 32.733208 -117.196888 134 25ft 0kts
08-Jun-17 10:28 32.733208 -117.196888 134 25ft 0kts
08-Jun-17 10:29 32.733208 -117.196888 134 25ft 0kts
08-Jun-17 10:30 32.733208 -117.196888 134 25ft 0kts
08-Jun-17 10:31 32.733208 -117.196888 134 25ft 0kts
08-Jun-17 10:32 32.733208 -117.196888 134 25ft 0kts
08-Jun-17 10:33 32.733208 -117.196888 134 25ft 0kts
08-Jun-17 10:34 32.733561 -117.197550 77 25ft 3kts
08-Jun-17 10:35 32.733436 -117.197787 43 25ft 0kts
08-Jun-17 10:36 32.733436 -117.197787 43 25ft 0kts
08-Jun-17 10:37 32.733436 -117.197787 43 25ft 0kts
08-Jun-17 10:38 32.733436 -117.197787 43 25ft 0kts
08-Jun-17 10:39 32.733436 -117.197787 43 25ft 0kts
08-Jun-17 10:40 32.733436 -117.197787 43 25ft 0kts
08-Jun-17 10:41 32.733718 -117.197422 54 25ft 5kts
08-Jun-17 10:42 32.733416 -117.193326 106 25ft 23kts
08-Jun-17 10:43 32.731179 -117.184096 106 25ft 35kts
08-Jun-17 10:44 32.730306 -117.176069 292 25ft 8kts
08-Jun-17 10:45 32.739846 -117.211091 290 1499ft 206kts
08-Jun-17 10:46 32.771623 -117.262302 305 3295ft 214kts
08-Jun-17 10:47 32.806268 -117.319605 303 5280ft 219kts
08-Jun-17 10:48 32.843484 -117.382866 303 7303ft 282kts
08-Jun-17 10:49 32.893940 -117.449551 327 9227ft 295kts
08-Jun-17 10:50 32.961584 -117.502726 309 9975ft 298kts
08-Jun-17 10:51 33.012082 -117.576682 306 9966ft 281kts
08-Jun-17 10:52 33.057736 -117.645763 305 9971ft 282kts
08-Jun-17 10:53 33.103240 -117.715072 305 9973ft 280kts
08-Jun-17 10:54 33.150009 -117.786939 304 9974ft 281kts
08-Jun-17 10:55 33.207851 -117.843625 337 9980ft 294kts
08-Jun-17 10:56 33.279111 -117.870994 340 9982ft 297kts
08-Jun-17 10:57 33.352070 -117.861104 11 8839ft 302kts
08-Jun-17 10:58 33.408203 -117.845581 11 8012ft 291kts
08-Jun-17 10:59 33.459774 -117.824029 21 7992ft 295kts
08-Jun-17 11:00 33.519026 -117.795596 21 7991ft 294kts
08-Jun-17 11:01 33.577628 -117.767448 21 7991ft 295kts
08-Jun-17 11:02 33.629828 -117.742335 21 7992ft 294kts
08-Jun-17 11:03 33.691475 -117.711906 21 7985ft 264kts
08-Jun-17 11:04 33.748161 -117.682486 21 7995ft 215kts
08-Jun-17 11:05 33.795517 -117.656637 21 7226ft 202kts
08-Jun-17 11:06 33.839475 -117.632811 21 6110ft 191kts
08-Jun-17 11:07 33.875392 -117.638363 302 5238ft 178kts
08-Jun-17 11:08 33.897164 -117.680957 301 4996ft 176kts
08-Jun-17 11:09 33.918361 -117.722693 301 4159ft 194kts
08-Jun-17 11:10 33.940040 -117.769930 276 3258ft 195kts
08-Jun-17 11:11 33.907046 -117.787233 123 2996ft 182kts
08-Jun-17 11:12 33.888186 -117.734652 111 2989ft 181kts
08-Jun-17 11:13 33.861720 -117.695299 186 3003ft 181kts
08-Jun-17 11:14 33.846259 -117.738313 281 2995ft 175kts
08-Jun-17 11:15 33.822069 -117.779078 221 2995ft 171kts
08-Jun-17 11:16 33.794093 -117.808234 203 2985ft 171kts
08-Jun-17 11:17 33.748663 -117.822603 207 1596ft 164kts
08-Jun-17 11:18 33.711169 -117.846338 207 744ft 166kts
08-Jun-17 11:19 33.677301 -117.867805 206 77ft 125kts
08-Jun-17 11:20 33.667590 -117.872972 106 65ft 0kts
08-Jun-17 11:21 33.667765 -117.872360 49 64ft 10kts
08-Jun-17 11:22 33.670614 -117.869431 41 64ft 19kts
08-Jun-17 11:23 33.675226 -117.865588 85 64ft 7kts
08-Jun-17 11:24 33.675053 -117.865124 118 64ft 0kts
08-Jun-17 11:25 33.675053 -117.865124 118 64ft 0kts
08-Jun-17 11:26 33.675053 -117.865124 118 64ft 0kts
08-Jun-17 11:27 33.675053 -117.865124 118 64ft 0kts
08-Jun-17 11:28 33.675053 -117.865124 118 64ft 0kts

Navigation Log

Ident Type
1. KSAN Airport
2. MELDY Fix
3. PEBLE Fix
4. SLI Navaid
5. KSNA Airport